sensor_id;sensor_type;location;lat;lon;timestamp;P1;durP1;ratioP1;P2;durP2;ratioP2
12707;SDS011;6418;50.824;4.718;2022-08-05T00:02:05;16.00;;;8.93;;
12707;SDS011;6418;50.824;4.718;2022-08-05T00:04:32;15.97;;;9.30;;
12707;SDS011;6418;50.824;4.718;2022-08-05T00:06:59;18.73;;;9.33;;
12707;SDS011;6418;50.824;4.718;2022-08-05T00:09:26;17.13;;;8.23;;
12707;SDS011;6418;50.824;4.718;2022-08-05T00:11:53;17.03;;;8.13;;
12707;SDS011;6418;50.824;4.718;2022-08-05T00:14:21;16.13;;;8.00;;
12707;SDS011;6418;50.824;4.718;2022-08-05T00:16:49;14.67;;;8.03;;
12707;SDS011;6418;50.824;4.718;2022-08-05T00:19:16;14.80;;;7.37;;
12707;SDS011;6418;50.824;4.718;2022-08-05T00:21:42;13.67;;;7.37;;
12707;SDS011;6418;50.824;4.718;2022-08-05T00:24:09;14.87;;;8.17;;
12707;SDS011;6418;50.824;4.718;2022-08-05T00:26:36;13.03;;;7.70;;
12707;SDS011;6418;50.824;4.718;2022-08-05T00:29:03;15.27;;;7.97;;
12707;SDS011;6418;50.824;4.718;2022-08-05T00:31:32;14.53;;;8.00;;
12707;SDS011;6418;50.824;4.718;2022-08-05T00:33:59;16.97;;;8.07;;
12707;SDS011;6418;50.824;4.718;2022-08-05T00:36:25;15.17;;;7.63;;
12707;SDS011;6418;50.824;4.718;2022-08-05T00:38:52;14.93;;;8.37;;
12707;SDS011;6418;50.824;4.718;2022-08-05T00:41:26;19.63;;;10.13;;
12707;SDS011;6418;50.824;4.718;2022-08-05T00:43:54;22.15;;;10.57;;
12707;SDS011;6418;50.824;4.718;2022-08-05T00:46:21;21.70;;;10.10;;
12707;SDS011;6418;50.824;4.718;2022-08-05T00:48:50;20.17;;;10.30;;
12707;SDS011;6418;50.824;4.718;2022-08-05T00:51:17;19.63;;;11.40;;
12707;SDS011;6418;50.824;4.718;2022-08-05T00:53:44;24.30;;;11.20;;
12707;SDS011;6418;50.824;4.718;2022-08-05T00:56:12;21.07;;;11.70;;
12707;SDS011;6418;50.824;4.718;2022-08-05T00:58:41;24.23;;;11.70;;
12707;SDS011;6418;50.824;4.718;2022-08-05T01:01:10;24.13;;;11.83;;
12707;SDS011;6418;50.824;4.718;2022-08-05T01:03:39;22.93;;;12.37;;
12707;SDS011;6418;50.824;4.718;2022-08-05T01:06:09;23.57;;;12.40;;
12707;SDS011;6418;50.824;4.718;2022-08-05T01:08:36;19.00;;;11.53;;
12707;SDS011;6418;50.824;4.718;2022-08-05T01:11:05;19.87;;;11.27;;
12707;SDS011;6418;50.824;4.718;2022-08-05T01:13:38;26.00;;;12.43;;
12707;SDS011;6418;50.824;4.718;2022-08-05T01:16:12;24.10;;;13.13;;
12707;SDS011;6418;50.824;4.718;2022-08-05T01:18:46;26.73;;;13.77;;
12707;SDS011;6418;50.824;4.718;2022-08-05T01:21:22;22.57;;;13.33;;
12707;SDS011;6418;50.824;4.718;2022-08-05T01:24:07;26.17;;;14.73;;
12707;SDS011;6418;50.824;4.718;2022-08-05T01:26:53;27.97;;;14.83;;
12707;SDS011;6418;50.824;4.718;2022-08-05T01:29:30;30.17;;;15.73;;
12707;SDS011;6418;50.824;4.718;2022-08-05T01:32:03;26.57;;;14.83;;
12707;SDS011;6418;50.824;4.718;2022-08-05T01:34:33;25.10;;;14.77;;
12707;SDS011;6418;50.824;4.718;2022-08-05T01:37:05;28.93;;;15.70;;
12707;SDS011;6418;50.824;4.718;2022-08-05T01:39:37;22.97;;;15.17;;
12707;SDS011;6418;50.824;4.718;2022-08-05T01:42:05;25.80;;;15.03;;
12707;SDS011;6418;50.824;4.718;2022-08-05T01:44:36;30.63;;;15.53;;
12707;SDS011;6418;50.824;4.718;2022-08-05T01:47:05;27.03;;;15.67;;
12707;SDS011;6418;50.824;4.718;2022-08-05T01:49:34;27.43;;;15.00;;
12707;SDS011;6418;50.824;4.718;2022-08-05T01:52:05;27.00;;;15.00;;
12707;SDS011;6418;50.824;4.718;2022-08-05T01:54:34;24.43;;;14.80;;
12707;SDS011;6418;50.824;4.718;2022-08-05T01:57:06;28.27;;;15.43;;
12707;SDS011;6418;50.824;4.718;2022-08-05T01:59:35;26.70;;;14.97;;
12707;SDS011;6418;50.824;4.718;2022-08-05T02:02:05;28.33;;;16.07;;
12707;SDS011;6418;50.824;4.718;2022-08-05T02:04:34;24.43;;;15.53;;
12707;SDS011;6418;50.824;4.718;2022-08-05T02:07:03;27.73;;;16.00;;
12707;SDS011;6418;50.824;4.718;2022-08-05T02:09:30;26.40;;;15.50;;
12707;SDS011;6418;50.824;4.718;2022-08-05T02:12:01;24.33;;;15.30;;
12707;SDS011;6418;50.824;4.718;2022-08-05T02:14:31;26.10;;;15.80;;
12707;SDS011;6418;50.824;4.718;2022-08-05T02:17:05;28.10;;;15.37;;
12707;SDS011;6418;50.824;4.718;2022-08-05T02:19:37;25.97;;;15.50;;
12707;SDS011;6418;50.824;4.718;2022-08-05T02:22:12;28.23;;;16.20;;
12707;SDS011;6418;50.824;4.718;2022-08-05T02:24:44;29.53;;;16.77;;
12707;SDS011;6418;50.824;4.718;2022-08-05T02:27:17;27.33;;;16.90;;
12707;SDS011;6418;50.824;4.718;2022-08-05T02:29:46;29.47;;;17.40;;
12707;SDS011;6418;50.824;4.718;2022-08-05T02:32:16;25.10;;;15.10;;
12707;SDS011;6418;50.824;4.718;2022-08-05T02:34:46;26.23;;;16.40;;
12707;SDS011;6418;50.824;4.718;2022-08-05T02:37:14;25.07;;;15.43;;
12707;SDS011;6418;50.824;4.718;2022-08-05T02:39:42;26.00;;;15.40;;
12707;SDS011;6418;50.824;4.718;2022-08-05T02:42:11;25.50;;;15.40;;
12707;SDS011;6418;50.824;4.718;2022-08-05T02:44:39;24.23;;;15.13;;
12707;SDS011;6418;50.824;4.718;2022-08-05T02:47:08;23.10;;;15.10;;
12707;SDS011;6418;50.824;4.718;2022-08-05T02:49:40;25.27;;;15.40;;
12707;SDS011;6418;50.824;4.718;2022-08-05T02:52:09;22.97;;;14.63;;
12707;SDS011;6418;50.824;4.718;2022-08-05T02:54:40;23.30;;;14.00;;
12707;SDS011;6418;50.824;4.718;2022-08-05T02:57:09;22.67;;;15.00;;
12707;SDS011;6418;50.824;4.718;2022-08-05T02:59:39;21.33;;;14.53;;
12707;SDS011;6418;50.824;4.718;2022-08-05T03:02:08;23.00;;;14.70;;
12707;SDS011;6418;50.824;4.718;2022-08-05T03:04:37;23.63;;;13.67;;
12707;SDS011;6418;50.824;4.718;2022-08-05T03:07:07;22.43;;;13.63;;
12707;SDS011;6418;50.824;4.718;2022-08-05T03:09:35;24.53;;;14.20;;
12707;SDS011;6418;50.824;4.718;2022-08-05T03:12:02;22.40;;;14.40;;
12707;SDS011;6418;50.824;4.718;2022-08-05T03:14:30;21.30;;;14.87;;
12707;SDS011;6418;50.824;4.718;2022-08-05T03:16:57;22.97;;;14.37;;
12707;SDS011;6418;50.824;4.718;2022-08-05T03:19:24;22.20;;;13.97;;
12707;SDS011;6418;50.824;4.718;2022-08-05T03:21:52;22.57;;;13.43;;
12707;SDS011;6418;50.824;4.718;2022-08-05T03:24:19;21.80;;;14.27;;
12707;SDS011;6418;50.824;4.718;2022-08-05T03:26:47;25.73;;;14.07;;
12707;SDS011;6418;50.824;4.718;2022-08-05T03:29:13;21.30;;;13.30;;
12707;SDS011;6418;50.824;4.718;2022-08-05T03:31:40;23.47;;;13.63;;
12707;SDS011;6418;50.824;4.718;2022-08-05T03:34:07;22.63;;;14.17;;
12707;SDS011;6418;50.824;4.718;2022-08-05T03:36:35;20.40;;;13.07;;
12707;SDS011;6418;50.824;4.718;2022-08-05T03:39:06;22.73;;;13.37;;
12707;SDS011;6418;50.824;4.718;2022-08-05T03:41:33;23.50;;;13.83;;
12707;SDS011;6418;50.824;4.718;2022-08-05T03:44:00;20.27;;;13.37;;
12707;SDS011;6418;50.824;4.718;2022-08-05T03:46:27;22.90;;;13.87;;
12707;SDS011;6418;50.824;4.718;2022-08-05T03:48:55;21.47;;;13.10;;
12707;SDS011;6418;50.824;4.718;2022-08-05T03:51:23;21.60;;;14.37;;
12707;SDS011;6418;50.824;4.718;2022-08-05T03:53:55;28.73;;;15.43;;
12707;SDS011;6418;50.824;4.718;2022-08-05T03:56:27;26.30;;;15.23;;
12707;SDS011;6418;50.824;4.718;2022-08-05T03:58:59;24.27;;;16.57;;
12707;SDS011;6418;50.824;4.718;2022-08-05T04:01:28;25.53;;;16.37;;
12707;SDS011;6418;50.824;4.718;2022-08-05T04:03:57;28.30;;;16.87;;
12707;SDS011;6418;50.824;4.718;2022-08-05T04:06:26;28.07;;;18.43;;
12707;SDS011;6418;50.824;4.718;2022-08-05T04:08:53;29.00;;;17.87;;
12707;SDS011;6418;50.824;4.718;2022-08-05T04:11:21;28.30;;;17.40;;
12707;SDS011;6418;50.824;4.718;2022-08-05T04:13:49;36.70;;;19.23;;
12707;SDS011;6418;50.824;4.718;2022-08-05T04:16:17;31.03;;;18.63;;
12707;SDS011;6418;50.824;4.718;2022-08-05T04:18:44;36.23;;;20.23;;
12707;SDS011;6418;50.824;4.718;2022-08-05T04:21:11;33.80;;;20.00;;
12707;SDS011;6418;50.824;4.718;2022-08-05T04:23:38;30.27;;;19.77;;
12707;SDS011;6418;50.824;4.718;2022-08-05T04:26:05;33.80;;;20.00;;
12707;SDS011;6418;50.824;4.718;2022-08-05T04:28:32;38.53;;;21.43;;
12707;SDS011;6418;50.824;4.718;2022-08-05T04:31:00;35.70;;;20.90;;
12707;SDS011;6418;50.824;4.718;2022-08-05T04:33:27;33.93;;;20.40;;
12707;SDS011;6418;50.824;4.718;2022-08-05T04:35:55;33.43;;;21.23;;
12707;SDS011;6418;50.824;4.718;2022-08-05T04:38:21;35.80;;;21.23;;
12707;SDS011;6418;50.824;4.718;2022-08-05T04:40:48;33.07;;;20.87;;
12707;SDS011;6418;50.824;4.718;2022-08-05T04:43:15;34.40;;;21.67;;
12707;SDS011;6418;50.824;4.718;2022-08-05T04:45:42;39.40;;;21.37;;
12707;SDS011;6418;50.824;4.718;2022-08-05T04:48:11;33.43;;;20.53;;
12707;SDS011;6418;50.824;4.718;2022-08-05T04:50:40;31.33;;;20.40;;
12707;SDS011;6418;50.824;4.718;2022-08-05T04:53:08;32.77;;;19.53;;
12707;SDS011;6418;50.824;4.718;2022-08-05T04:55:35;35.53;;;21.73;;
12707;SDS011;6418;50.824;4.718;2022-08-05T04:58:03;34.03;;;20.67;;
12707;SDS011;6418;50.824;4.718;2022-08-05T05:00:31;31.80;;;20.77;;
12707;SDS011;6418;50.824;4.718;2022-08-05T05:02:58;32.53;;;21.50;;
12707;SDS011;6418;50.824;4.718;2022-08-05T05:05:26;32.83;;;22.37;;
12707;SDS011;6418;50.824;4.718;2022-08-05T05:07:54;35.40;;;22.93;;
12707;SDS011;6418;50.824;4.718;2022-08-05T05:10:21;36.50;;;22.07;;
12707;SDS011;6418;50.824;4.718;2022-08-05T05:12:48;30.40;;;20.37;;
12707;SDS011;6418;50.824;4.718;2022-08-05T05:15:15;33.13;;;21.13;;
12707;SDS011;6418;50.824;4.718;2022-08-05T05:17:42;32.30;;;20.00;;
12707;SDS011;6418;50.824;4.718;2022-08-05T05:20:10;34.83;;;20.47;;
12707;SDS011;6418;50.824;4.718;2022-08-05T05:22:39;32.73;;;19.30;;
12707;SDS011;6418;50.824;4.718;2022-08-05T05:25:07;33.83;;;19.60;;
12707;SDS011;6418;50.824;4.718;2022-08-05T05:27:35;30.60;;;18.47;;
12707;SDS011;6418;50.824;4.718;2022-08-05T05:30:03;29.03;;;18.03;;
12707;SDS011;6418;50.824;4.718;2022-08-05T05:32:31;33.80;;;18.37;;
12707;SDS011;6418;50.824;4.718;2022-08-05T05:34:58;29.03;;;17.27;;
12707;SDS011;6418;50.824;4.718;2022-08-05T05:37:25;29.03;;;17.83;;
12707;SDS011;6418;50.824;4.718;2022-08-05T05:39:53;30.47;;;18.67;;
12707;SDS011;6418;50.824;4.718;2022-08-05T05:42:20;26.97;;;17.57;;
12707;SDS011;6418;50.824;4.718;2022-08-05T05:44:47;30.57;;;17.67;;
12707;SDS011;6418;50.824;4.718;2022-08-05T05:47:14;29.57;;;17.03;;
12707;SDS011;6418;50.824;4.718;2022-08-05T05:49:41;24.40;;;16.50;;
12707;SDS011;6418;50.824;4.718;2022-08-05T05:52:08;28.03;;;16.07;;
12707;SDS011;6418;50.824;4.718;2022-08-05T05:54:35;24.47;;;16.17;;
12707;SDS011;6418;50.824;4.718;2022-08-05T05:57:03;26.20;;;14.97;;
12707;SDS011;6418;50.824;4.718;2022-08-05T05:59:30;30.33;;;15.80;;
12707;SDS011;6418;50.824;4.718;2022-08-05T06:01:57;23.10;;;15.27;;
12707;SDS011;6418;50.824;4.718;2022-08-05T06:04:24;28.83;;;15.50;;
12707;SDS011;6418;50.824;4.718;2022-08-05T06:06:51;23.70;;;14.77;;
12707;SDS011;6418;50.824;4.718;2022-08-05T06:09:18;27.03;;;15.23;;
12707;SDS011;6418;50.824;4.718;2022-08-05T06:11:45;27.80;;;14.67;;
12707;SDS011;6418;50.824;4.718;2022-08-05T06:14:13;24.47;;;14.43;;
12707;SDS011;6418;50.824;4.718;2022-08-05T06:16:40;25.30;;;13.50;;
12707;SDS011;6418;50.824;4.718;2022-08-05T06:19:07;28.57;;;14.77;;
12707;SDS011;6418;50.824;4.718;2022-08-05T06:21:35;22.80;;;14.33;;
12707;SDS011;6418;50.824;4.718;2022-08-05T06:24:02;23.27;;;13.93;;
12707;SDS011;6418;50.824;4.718;2022-08-05T06:26:30;23.03;;;14.43;;
12707;SDS011;6418;50.824;4.718;2022-08-05T06:28:56;20.70;;;13.90;;
12707;SDS011;6418;50.824;4.718;2022-08-05T06:31:25;24.17;;;13.60;;
12707;SDS011;6418;50.824;4.718;2022-08-05T06:33:52;25.40;;;14.17;;
12707;SDS011;6418;50.824;4.718;2022-08-05T06:36:19;24.37;;;14.20;;
12707;SDS011;6418;50.824;4.718;2022-08-05T06:38:45;23.25;;;13.55;;
12707;SDS011;6418;50.824;4.718;2022-08-05T06:41:14;24.13;;;14.10;;
12707;SDS011;6418;50.824;4.718;2022-08-05T06:43:41;25.50;;;13.97;;
12707;SDS011;6418;50.824;4.718;2022-08-05T06:46:08;23.30;;;13.63;;
12707;SDS011;6418;50.824;4.718;2022-08-05T06:48:36;23.13;;;13.43;;
12707;SDS011;6418;50.824;4.718;2022-08-05T06:51:05;21.97;;;12.90;;
12707;SDS011;6418;50.824;4.718;2022-08-05T06:53:32;22.83;;;13.60;;
12707;SDS011;6418;50.824;4.718;2022-08-05T06:56:00;21.10;;;13.40;;
12707;SDS011;6418;50.824;4.718;2022-08-05T06:58:28;21.47;;;12.47;;
12707;SDS011;6418;50.824;4.718;2022-08-05T07:00:56;25.77;;;13.43;;
12707;SDS011;6418;50.824;4.718;2022-08-05T07:03:23;22.83;;;13.07;;
12707;SDS011;6418;50.824;4.718;2022-08-05T07:05:52;21.57;;;13.73;;
12707;SDS011;6418;50.824;4.718;2022-08-05T07:08:19;21.33;;;13.30;;
12707;SDS011;6418;50.824;4.718;2022-08-05T07:10:47;21.17;;;13.03;;
12707;SDS011;6418;50.824;4.718;2022-08-05T07:13:14;20.80;;;12.70;;
12707;SDS011;6418;50.824;4.718;2022-08-05T07:15:58;19.60;;;12.77;;
12707;SDS011;6418;50.824;4.718;2022-08-05T07:18:42;23.10;;;13.30;;
12707;SDS011;6418;50.824;4.718;2022-08-05T07:21:10;21.33;;;12.10;;
12707;SDS011;6418;50.824;4.718;2022-08-05T07:23:37;18.37;;;12.27;;
12707;SDS011;6418;50.824;4.718;2022-08-05T07:26:04;17.77;;;12.03;;
12707;SDS011;6418;50.824;4.718;2022-08-05T07:28:31;23.23;;;13.07;;
12707;SDS011;6418;50.824;4.718;2022-08-05T07:30:58;20.70;;;13.00;;
12707;SDS011;6418;50.824;4.718;2022-08-05T07:33:25;21.23;;;12.40;;
12707;SDS011;6418;50.824;4.718;2022-08-05T07:35:52;21.63;;;12.00;;
12707;SDS011;6418;50.824;4.718;2022-08-05T07:38:20;21.73;;;12.53;;
12707;SDS011;6418;50.824;4.718;2022-08-05T07:40:47;21.77;;;12.70;;
12707;SDS011;6418;50.824;4.718;2022-08-05T07:43:14;21.73;;;12.70;;
12707;SDS011;6418;50.824;4.718;2022-08-05T07:45:41;19.83;;;12.47;;
12707;SDS011;6418;50.824;4.718;2022-08-05T07:48:08;19.60;;;11.93;;
12707;SDS011;6418;50.824;4.718;2022-08-05T07:50:35;20.43;;;12.13;;
12707;SDS011;6418;50.824;4.718;2022-08-05T07:53:03;18.77;;;11.67;;
12707;SDS011;6418;50.824;4.718;2022-08-05T07:55:31;21.67;;;12.40;;
12707;SDS011;6418;50.824;4.718;2022-08-05T07:57:58;21.40;;;11.77;;
12707;SDS011;6418;50.824;4.718;2022-08-05T08:00:25;18.27;;;11.00;;
12707;SDS011;6418;50.824;4.718;2022-08-05T08:02:52;20.07;;;11.20;;
12707;SDS011;6418;50.824;4.718;2022-08-05T08:05:19;17.97;;;11.27;;
12707;SDS011;6418;50.824;4.718;2022-08-05T08:07:46;23.10;;;12.07;;
12707;SDS011;6418;50.824;4.718;2022-08-05T08:10:13;17.20;;;10.97;;
12707;SDS011;6418;50.824;4.718;2022-08-05T08:12:41;20.60;;;11.57;;
12707;SDS011;6418;50.824;4.718;2022-08-05T08:15:08;18.93;;;11.20;;
12707;SDS011;6418;50.824;4.718;2022-08-05T08:17:36;18.43;;;10.93;;
12707;SDS011;6418;50.824;4.718;2022-08-05T08:20:03;19.73;;;11.37;;
12707;SDS011;6418;50.824;4.718;2022-08-05T08:22:31;16.50;;;9.70;;
12707;SDS011;6418;50.824;4.718;2022-08-05T08:24:58;19.27;;;10.10;;
12707;SDS011;6418;50.824;4.718;2022-08-05T08:27:25;21.33;;;10.33;;
12707;SDS011;6418;50.824;4.718;2022-08-05T08:29:53;18.27;;;9.77;;
12707;SDS011;6418;50.824;4.718;2022-08-05T08:32:20;17.17;;;9.83;;
12707;SDS011;6418;50.824;4.718;2022-08-05T08:34:47;20.53;;;10.10;;
12707;SDS011;6418;50.824;4.718;2022-08-05T08:37:14;16.33;;;9.60;;
12707;SDS011;6418;50.824;4.718;2022-08-05T08:39:41;19.60;;;9.90;;
12707;SDS011;6418;50.824;4.718;2022-08-05T08:42:08;17.63;;;10.23;;
12707;SDS011;6418;50.824;4.718;2022-08-05T08:44:36;17.73;;;10.00;;
12707;SDS011;6418;50.824;4.718;2022-08-05T08:47:06;18.93;;;9.37;;
12707;SDS011;6418;50.824;4.718;2022-08-05T08:49:34;16.80;;;9.07;;
12707;SDS011;6418;50.824;4.718;2022-08-05T08:52:04;18.47;;;9.00;;
12707;SDS011;6418;50.824;4.718;2022-08-05T08:54:36;14.83;;;8.57;;
12707;SDS011;6418;50.824;4.718;2022-08-05T08:57:04;17.03;;;9.33;;
12707;SDS011;6418;50.824;4.718;2022-08-05T08:59:31;16.60;;;8.90;;
12707;SDS011;6418;50.824;4.718;2022-08-05T09:01:59;16.20;;;8.10;;
12707;SDS011;6418;50.824;4.718;2022-08-05T09:04:32;17.73;;;8.13;;
12707;SDS011;6418;50.824;4.718;2022-08-05T09:07:01;16.95;;;8.73;;
12707;SDS011;6418;50.824;4.718;2022-08-05T09:09:29;13.67;;;7.53;;
12707;SDS011;6418;50.824;4.718;2022-08-05T09:11:56;15.50;;;7.40;;
12707;SDS011;6418;50.824;4.718;2022-08-05T09:14:23;17.53;;;8.00;;
12707;SDS011;6418;50.824;4.718;2022-08-05T09:16:50;16.27;;;8.50;;
12707;SDS011;6418;50.824;4.718;2022-08-05T09:19:17;17.20;;;7.43;;
12707;SDS011;6418;50.824;4.718;2022-08-05T09:21:46;14.50;;;7.03;;
12707;SDS011;6418;50.824;4.718;2022-08-05T09:24:13;17.60;;;8.33;;
12707;SDS011;6418;50.824;4.718;2022-08-05T09:26:40;15.07;;;7.47;;
12707;SDS011;6418;50.824;4.718;2022-08-05T09:29:11;14.60;;;8.10;;
12707;SDS011;6418;50.824;4.718;2022-08-05T09:31:38;15.27;;;7.38;;
12707;SDS011;6418;50.824;4.718;2022-08-05T09:34:08;19.17;;;6.95;;
12707;SDS011;6418;50.824;4.718;2022-08-05T09:36:40;12.80;;;6.53;;
12707;SDS011;6418;50.824;4.718;2022-08-05T09:39:10;10.83;;;5.23;;
12707;SDS011;6418;50.824;4.718;2022-08-05T09:41:53;16.48;;;6.00;;
12707;SDS011;6418;50.824;4.718;2022-08-05T09:44:34;12.30;;;5.00;;
12707;SDS011;6418;50.824;4.718;2022-08-05T09:47:09;10.70;;;5.00;;
12707;SDS011;6418;50.824;4.718;2022-08-05T09:49:41;12.55;;;5.60;;
12707;SDS011;6418;50.824;4.718;2022-08-05T09:52:20;9.32;;;4.57;;
12707;SDS011;6418;50.824;4.718;2022-08-05T09:54:53;9.70;;;4.25;;
12707;SDS011;6418;50.824;4.718;2022-08-05T09:57:35;6.68;;;3.78;;
12707;SDS011;6418;50.824;4.718;2022-08-05T10:00:05;10.23;;;4.00;;
12707;SDS011;6418;50.824;4.718;2022-08-05T10:02:37;8.85;;;3.80;;
12707;SDS011;6418;50.824;4.718;2022-08-05T10:05:05;10.95;;;4.10;;
12707;SDS011;6418;50.824;4.718;2022-08-05T10:07:41;9.65;;;4.18;;
12707;SDS011;6418;50.824;4.718;2022-08-05T10:10:11;14.52;;;4.75;;
12707;SDS011;6418;50.824;4.718;2022-08-05T10:12:39;11.02;;;4.22;;
12707;SDS011;6418;50.824;4.718;2022-08-05T10:15:16;8.27;;;4.05;;
12707;SDS011;6418;50.824;4.718;2022-08-05T10:18:01;9.45;;;4.45;;
12707;SDS011;6418;50.824;4.718;2022-08-05T10:20:36;9.60;;;4.47;;
12707;SDS011;6418;50.824;4.718;2022-08-05T10:23:06;11.30;;;4.78;;
12707;SDS011;6418;50.824;4.718;2022-08-05T10:25:34;9.65;;;4.68;;
12707;SDS011;6418;50.824;4.718;2022-08-05T10:28:01;11.05;;;4.90;;
12707;SDS011;6418;50.824;4.718;2022-08-05T10:30:29;11.07;;;4.88;;
12707;SDS011;6418;50.824;4.718;2022-08-05T10:32:56;10.23;;;4.32;;
12707;SDS011;6418;50.824;4.718;2022-08-05T10:35:24;9.48;;;4.43;;
12707;SDS011;6418;50.824;4.718;2022-08-05T10:37:51;10.85;;;4.38;;
12707;SDS011;6418;50.824;4.718;2022-08-05T10:40:21;10.10;;;3.65;;
12707;SDS011;6418;50.824;4.718;2022-08-05T10:42:57;7.38;;;4.10;;
12707;SDS011;6418;50.824;4.718;2022-08-05T10:45:29;7.10;;;3.53;;
12707;SDS011;6418;50.824;4.718;2022-08-05T10:47:59;9.05;;;3.67;;
12707;SDS011;6418;50.824;4.718;2022-08-05T10:51:00;6.72;;;3.42;;
12707;SDS011;6418;50.824;4.718;2022-08-05T10:53:32;6.22;;;3.30;;
12707;SDS011;6418;50.824;4.718;2022-08-05T10:56:01;6.22;;;3.28;;
12707;SDS011;6418;50.824;4.718;2022-08-05T10:58:30;6.10;;;3.10;;
12707;SDS011;6418;50.824;4.718;2022-08-05T11:00:58;5.22;;;3.20;;
12707;SDS011;6418;50.824;4.718;2022-08-05T11:03:25;7.78;;;3.83;;
12707;SDS011;6418;50.824;4.718;2022-08-05T11:06:03;6.57;;;3.20;;
12707;SDS011;6418;50.824;4.718;2022-08-05T11:08:32;5.97;;;3.70;;
12707;SDS011;6418;50.824;4.718;2022-08-05T11:13:58;7.28;;;3.72;;
12707;SDS011;6418;50.824;4.718;2022-08-05T11:16:27;7.97;;;3.70;;
12707;SDS011;6418;50.824;4.718;2022-08-05T11:21:49;7.97;;;4.00;;
12707;SDS011;6418;50.824;4.718;2022-08-05T11:24:16;5.95;;;3.47;;
12707;SDS011;6418;50.824;4.718;2022-08-05T11:26:45;7.30;;;3.58;;
12707;SDS011;6418;50.824;4.718;2022-08-05T11:32:22;6.45;;;3.80;;
12707;SDS011;6418;50.824;4.718;2022-08-05T11:34:50;8.88;;;4.25;;
12707;SDS011;6418;50.824;4.718;2022-08-05T11:43:24;7.25;;;4.45;;
12707;SDS011;6418;50.824;4.718;2022-08-05T11:45:53;10.52;;;4.57;;
12707;SDS011;6418;50.824;4.718;2022-08-05T11:48:20;7.75;;;4.03;;
12707;SDS011;6418;50.824;4.718;2022-08-05T11:50:48;16.25;;;4.30;;
12707;SDS011;6418;50.824;4.718;2022-08-05T11:53:15;8.35;;;4.18;;
12707;SDS011;6418;50.824;4.718;2022-08-05T11:55:52;8.50;;;3.95;;
12707;SDS011;6418;50.824;4.718;2022-08-05T11:58:29;10.40;;;3.83;;
12707;SDS011;6418;50.824;4.718;2022-08-05T12:01:03;7.18;;;3.80;;
12707;SDS011;6418;50.824;4.718;2022-08-05T12:03:39;8.30;;;3.40;;
12707;SDS011;6418;50.824;4.718;2022-08-05T12:06:09;7.10;;;3.20;;
12707;SDS011;6418;50.824;4.718;2022-08-05T12:08:43;9.10;;;3.28;;
12707;SDS011;6418;50.824;4.718;2022-08-05T12:11:16;8.68;;;3.00;;
12707;SDS011;6418;50.824;4.718;2022-08-05T12:13:54;5.93;;;3.30;;
12707;SDS011;6418;50.824;4.718;2022-08-05T12:16:24;7.07;;;3.38;;
12707;SDS011;6418;50.824;4.718;2022-08-05T12:18:52;6.00;;;3.10;;
12707;SDS011;6418;50.824;4.718;2022-08-05T12:21:21;7.22;;;3.20;;
12707;SDS011;6418;50.824;4.718;2022-08-05T12:23:50;6.53;;;3.13;;
12707;SDS011;6418;50.824;4.718;2022-08-05T12:26:18;7.03;;;3.20;;
12707;SDS011;6418;50.824;4.718;2022-08-05T12:28:45;8.88;;;3.45;;
12707;SDS011;6418;50.824;4.718;2022-08-05T12:31:12;9.48;;;3.65;;
12707;SDS011;6418;50.824;4.718;2022-08-05T12:33:41;6.82;;;3.03;;
12707;SDS011;6418;50.824;4.718;2022-08-05T12:36:10;6.80;;;3.00;;
12707;SDS011;6418;50.824;4.718;2022-08-05T12:38:38;7.65;;;3.33;;
12707;SDS011;6418;50.824;4.718;2022-08-05T12:41:06;8.77;;;3.05;;
12707;SDS011;6418;50.824;4.718;2022-08-05T12:43:34;8.05;;;2.95;;
12707;SDS011;6418;50.824;4.718;2022-08-05T12:46:19;7.25;;;3.03;;
12707;SDS011;6418;50.824;4.718;2022-08-05T12:48:47;6.00;;;3.28;;
12707;SDS011;6418;50.824;4.718;2022-08-05T12:51:22;6.93;;;3.45;;
12707;SDS011;6418;50.824;4.718;2022-08-05T12:53:49;6.43;;;2.85;;
12707;SDS011;6418;50.824;4.718;2022-08-05T12:56:16;5.97;;;2.65;;
12707;SDS011;6418;50.824;4.718;2022-08-05T12:58:44;5.63;;;2.95;;
12707;SDS011;6418;50.824;4.718;2022-08-05T13:01:14;5.82;;;3.05;;
12707;SDS011;6418;50.824;4.718;2022-08-05T13:03:41;8.15;;;3.22;;
12707;SDS011;6418;50.824;4.718;2022-08-05T13:06:12;11.18;;;3.03;;
12707;SDS011;6418;50.824;4.718;2022-08-05T13:08:40;6.43;;;2.67;;
12707;SDS011;6418;50.824;4.718;2022-08-05T13:11:07;6.35;;;2.97;;
12707;SDS011;6418;50.824;4.718;2022-08-05T13:13:41;6.47;;;2.85;;
12707;SDS011;6418;50.824;4.718;2022-08-05T13:16:12;6.80;;;3.13;;
12707;SDS011;6418;50.824;4.718;2022-08-05T13:18:49;5.72;;;3.10;;
12707;SDS011;6418;50.824;4.718;2022-08-05T13:21:17;8.05;;;3.05;;
12707;SDS011;6418;50.824;4.718;2022-08-05T13:23:44;6.88;;;2.80;;
12707;SDS011;6418;50.824;4.718;2022-08-05T13:26:11;7.55;;;2.65;;
12707;SDS011;6418;50.824;4.718;2022-08-05T13:28:38;5.82;;;2.67;;
12707;SDS011;6418;50.824;4.718;2022-08-05T13:31:05;6.45;;;2.50;;
12707;SDS011;6418;50.824;4.718;2022-08-05T13:33:32;3.17;;;2.22;;
12707;SDS011;6418;50.824;4.718;2022-08-05T13:35:58;5.65;;;2.63;;
12707;SDS011;6418;50.824;4.718;2022-08-05T13:38:27;3.88;;;2.17;;
12707;SDS011;6418;50.824;4.718;2022-08-05T13:40:54;6.80;;;2.70;;
12707;SDS011;6418;50.824;4.718;2022-08-05T13:43:21;6.95;;;2.85;;
12707;SDS011;6418;50.824;4.718;2022-08-05T13:45:47;4.80;;;2.10;;
12707;SDS011;6418;50.824;4.718;2022-08-05T13:48:14;4.18;;;1.83;;
12707;SDS011;6418;50.824;4.718;2022-08-05T13:50:41;7.57;;;2.53;;
12707;SDS011;6418;50.824;4.718;2022-08-05T13:53:08;4.72;;;2.63;;
12707;SDS011;6418;50.824;4.718;2022-08-05T13:55:36;3.67;;;1.95;;
12707;SDS011;6418;50.824;4.718;2022-08-05T13:58:03;5.82;;;2.05;;
12707;SDS011;6418;50.824;4.718;2022-08-05T14:00:30;5.90;;;2.33;;
12707;SDS011;6418;50.824;4.718;2022-08-05T14:03:00;7.30;;;2.20;;
12707;SDS011;6418;50.824;4.718;2022-08-05T14:05:27;4.03;;;1.80;;
12707;SDS011;6418;50.824;4.718;2022-08-05T14:07:54;4.70;;;2.20;;
12707;SDS011;6418;50.824;4.718;2022-08-05T14:10:21;5.43;;;1.92;;
12707;SDS011;6418;50.824;4.718;2022-08-05T14:12:49;6.75;;;1.88;;
12707;SDS011;6418;50.824;4.718;2022-08-05T14:15:16;5.45;;;2.08;;
12707;SDS011;6418;50.824;4.718;2022-08-05T14:17:43;5.63;;;1.77;;
12707;SDS011;6418;50.824;4.718;2022-08-05T14:20:10;6.68;;;2.05;;
12707;SDS011;6418;50.824;4.718;2022-08-05T14:22:38;4.38;;;1.70;;
12707;SDS011;6418;50.824;4.718;2022-08-05T14:25:05;5.93;;;1.98;;
12707;SDS011;6418;50.824;4.718;2022-08-05T14:27:34;6.32;;;2.20;;
12707;SDS011;6418;50.824;4.718;2022-08-05T14:30:02;5.57;;;2.28;;
12707;SDS011;6418;50.824;4.718;2022-08-05T14:32:29;5.57;;;2.13;;
12707;SDS011;6418;50.824;4.718;2022-08-05T14:34:56;4.70;;;1.75;;
12707;SDS011;6418;50.824;4.718;2022-08-05T14:37:23;4.75;;;1.60;;
12707;SDS011;6418;50.824;4.718;2022-08-05T14:39:50;4.43;;;1.92;;
12707;SDS011;6418;50.824;4.718;2022-08-05T14:42:17;6.65;;;2.22;;
12707;SDS011;6418;50.824;4.718;2022-08-05T14:44:44;5.80;;;1.52;;
12707;SDS011;6418;50.824;4.718;2022-08-05T14:47:12;5.25;;;1.65;;
12707;SDS011;6418;50.824;4.718;2022-08-05T14:49:39;6.72;;;2.08;;
12707;SDS011;6418;50.824;4.718;2022-08-05T14:52:06;7.15;;;1.70;;
12707;SDS011;6418;50.824;4.718;2022-08-05T14:54:33;5.20;;;1.80;;
12707;SDS011;6418;50.824;4.718;2022-08-05T14:57:00;7.45;;;1.58;;
12707;SDS011;6418;50.824;4.718;2022-08-05T14:59:27;4.00;;;1.60;;
12707;SDS011;6418;50.824;4.718;2022-08-05T15:01:54;3.67;;;1.83;;
12707;SDS011;6418;50.824;4.718;2022-08-05T15:04:23;3.80;;;1.83;;
12707;SDS011;6418;50.824;4.718;2022-08-05T15:06:50;9.05;;;2.30;;
12707;SDS011;6418;50.824;4.718;2022-08-05T15:09:17;3.70;;;1.60;;
12707;SDS011;6418;50.824;4.718;2022-08-05T15:11:44;1.73;;;0.98;;